Red Bank, Pennsylvania
Current Conditions -  °F | °C
As of 7:53 AM on Friday 28 Nov 2014 (Local Time) from KSEG Reporting Station
Overcast Overcast  
Wind Chill: 30°   Ceiling: 7000
Heat Index: 30°   Visibility: 10mi
Dew Point: 17°   Wind: 3mph
Humidity: 59%   Direction: 290°WNW
Pressure: 30.24"   Gusts: NA
Location:  40.9428°N, 77.0748°W
Report Text: KSEG 281253Z AUTO 29003KT 10SM OVC070 M01/M08 A3024 RMK AO2 SLP244 T10111083
Loading
Personal Weather Stations






























Interactive Weather Map New forecast layout! Learn more

10-Day Weather Forecast

Advertisements
Track Severe Weather on mobile